Time;durP1;ratioP1;P1;durP2;ratioP2;P2;SDS_P1;SDS_P2;PMS_P1;PMS_P2;Temp;Humidity;BMP_temperature;BMP_pressure;BME280_temperature;BME280_humidity;BME280_pressure;Samples;Min_cycle;Max_cycle;Signal;HPM_P1;HPM_P2
2021/12/16 00:04:08;;;;;;;16.27;11.47;;;7.80;99.90;;;;;;5029046;28;20439;-71
2021/12/16 00:06:56;;;;;;;15.30;10.97;;;7.80;99.90;;;;;;5045288;28;20543;-72
2021/12/16 00:09:19;;;;;;;19.17;11.47;;;7.80;99.90;;;;;;5047317;28;20431;-71
2021/12/16 00:34:03;;;;;;;22.10;12.00;;;8.10;99.90;;;;;;5059528;28;20410;-71
2021/12/16 00:36:36;;;;;;;18.50;12.27;;;8.10;99.90;;;;;;5051247;28;20905;-71
2021/12/16 00:39:14;;;;;;;18.60;11.67;;;8.20;99.90;;;;;;5049987;28;20781;-70
2021/12/16 00:41:42;;;;;;;18.80;12.27;;;8.20;99.90;;;;;;5050473;28;20968;-71
2021/12/16 00:59:16;;;;;;;17.20;11.80;;;8.20;99.90;;;;;;5036511;28;20415;-71
2021/12/16 01:49:13;;;;;;;19.27;11.90;;;8.10;99.90;;;;;;5049334;28;20424;-72
2021/12/16 01:57:20;;;;;;;16.17;11.30;;;8.00;99.90;;;;;;5049888;28;20794;-71
2021/12/16 01:59:57;;;;;;;18.80;12.40;;;8.10;99.90;;;;;;5048002;28;20428;-71
2021/12/16 02:02:38;;;;;;;17.80;11.40;;;8.10;99.90;;;;;;5050482;28;20479;-71
2021/12/16 02:08:23;;;;;;;17.37;11.73;;;8.00;99.90;;;;;;5049030;28;20434;-71
2021/12/16 02:11:36;;;;;;;18.20;12.43;;;8.00;99.90;;;;;;5049173;28;20442;-71
2021/12/16 02:33:23;;;;;;;18.87;13.27;;;8.10;99.90;;;;;;5049505;28;20402;-70
2021/12/16 02:36:01;;;;;;;23.83;14.20;;;8.20;99.90;;;;;;5048784;28;20534;-71
2021/12/16 02:38:31;;;;;;;18.37;11.97;;;8.10;99.90;;;;;;5048076;28;20423;-71
2021/12/16 02:40:57;;;;;;;19.40;12.20;;;8.10;99.90;;;;;;5048414;28;20431;-71
2021/12/16 02:48:39;;;;;;;19.80;12.60;;;8.00;99.90;;;;;;5048407;28;20423;-71
2021/12/16 02:51:15;;;;;;;17.63;11.90;;;8.00;99.90;;;;;;5047650;28;20877;-71
2021/12/16 02:54:10;;;;;;;16.67;11.30;;;8.00;99.90;;;;;;5047567;28;20426;-71
2021/12/16 02:56:36;;;;;;;18.47;12.10;;;8.00;99.90;;;;;;5045007;28;20482;-73
2021/12/16 02:59:04;;;;;;;16.90;12.17;;;8.00;99.90;;;;;;5048047;28;20477;-71
2021/12/16 03:01:44;;;;;;;18.47;12.00;;;8.00;99.90;;;;;;5048605;28;20436;-71
2021/12/16 03:04:14;;;;;;;21.90;12.60;;;7.90;99.90;;;;;;5047965;28;20444;-72
2021/12/16 03:06:42;;;;;;;18.37;12.60;;;8.10;99.90;;;;;;5047214;28;20426;-73
2021/12/16 03:09:10;;;;;;;18.53;13.03;;;7.90;99.90;;;;;;5047754;28;20432;-71
2021/12/16 03:14:36;;;;;;;17.97;11.00;;;7.90;99.90;;;;;;5043610;28;20502;-72
2021/12/16 03:19:50;;;;;;;16.90;11.17;;;7.70;99.90;;;;;;5047363;28;21035;-71
2021/12/16 03:22:43;;;;;;;18.30;11.13;;;7.70;99.90;;;;;;5047879;28;20724;-71
2021/12/16 03:25:20;;;;;;;15.60;10.80;;;7.70;99.90;;;;;;5048079;28;20549;-72
2021/12/16 03:36:03;;;;;;;15.90;10.53;;;7.60;99.90;;;;;;5047656;28;20459;-71
2021/12/16 03:38:30;;;;;;;17.40;11.20;;;7.60;99.90;;;;;;5045890;28;20427;-71
2021/12/16 03:40:56;;;;;;;16.77;10.83;;;7.60;99.90;;;;;;5047878;28;20462;-71
2021/12/16 03:43:22;;;;;;;25.50;12.60;;;7.70;99.90;;;;;;5049358;28;20451;-72
2021/12/16 03:48:41;;;;;;;21.80;13.70;;;7.70;99.90;;;;;;5047375;28;20236;-71
2021/12/16 03:51:14;;;;;;;16.57;11.67;;;7.70;99.90;;;;;;5046011;28;20882;-72
2021/12/16 03:53:43;;;;;;;20.97;12.60;;;7.70;99.90;;;;;;5044939;28;20420;-73
2021/12/16 03:56:09;;;;;;;20.80;13.40;;;7.70;99.90;;;;;;5047903;28;20968;-73
2021/12/16 03:58:34;;;;;;;18.20;12.33;;;7.80;99.90;;;;;;5045702;28;20521;-71
2021/12/16 04:01:06;;;;;;;23.97;13.23;;;7.80;99.90;;;;;;5045515;28;20940;-70
2021/12/16 04:03:32;;;;;;;17.77;12.23;;;7.80;99.90;;;;;;5047083;28;20177;-69
2021/12/16 04:05:59;;;;;;;19.50;12.57;;;7.90;99.90;;;;;;5045434;28;20423;-70
2021/12/16 04:08:25;;;;;;;18.80;12.50;;;7.90;99.90;;;;;;5047187;28;20782;-72
2021/12/16 04:11:03;;;;;;;19.10;11.40;;;7.90;99.90;;;;;;5046830;28;20447;-70
2021/12/16 04:13:29;;;;;;;17.03;11.40;;;8.00;99.90;;;;;;5056212;28;20415;-70
2021/12/16 04:15:55;;;;;;;19.70;12.17;;;8.00;99.90;;;;;;5056800;28;20448;-71
2021/12/16 04:18:21;;;;;;;22.53;11.90;;;8.00;99.90;;;;;;5045543;28;21288;-70
2021/12/16 04:20:47;;;;;;;18.20;12.10;;;8.00;99.90;;;;;;5046724;28;20518;-70
2021/12/16 04:23:14;;;;;;;18.30;11.40;;;7.90;99.90;;;;;;5047511;28;20172;-70
2021/12/16 04:25:43;;;;;;;16.70;11.47;;;7.90;99.90;;;;;;5047576;28;20411;-71
2021/12/16 04:28:14;;;;;;;21.93;12.20;;;7.90;99.90;;;;;;5045480;28;20941;-69
2021/12/16 04:30:40;;;;;;;20.50;12.47;;;7.90;99.90;;;;;;5045419;28;20450;-70
2021/12/16 04:33:06;;;;;;;21.00;13.00;;;7.90;99.90;;;;;;5047071;28;20441;-71
2021/12/16 04:35:33;;;;;;;19.00;12.33;;;7.90;99.90;;;;;;5046758;28;21067;-70
2021/12/16 04:37:59;;;;;;;18.13;11.80;;;7.90;99.90;;;;;;5046581;28;20285;-70
2021/12/16 04:40:27;;;;;;;19.97;13.20;;;7.80;99.90;;;;;;5047154;28;20424;-72
2021/12/16 04:42:59;;;;;;;18.70;12.20;;;7.80;99.90;;;;;;5045490;28;20987;-71
2021/12/16 04:45:25;;;;;;;17.50;12.10;;;7.80;99.90;;;;;;5057731;28;20429;-70
2021/12/16 04:47:50;;;;;;;16.97;11.83;;;7.90;99.90;;;;;;5051517;28;20518;-70
2021/12/16 04:50:17;;;;;;;18.13;12.20;;;7.80;99.90;;;;;;5045735;28;20193;-70
2021/12/16 04:52:44;;;;;;;18.20;11.90;;;7.80;99.90;;;;;;5046869;28;20184;-70
2021/12/16 04:55:11;;;;;;;18.00;11.60;;;7.80;99.90;;;;;;5047081;28;20463;-70
2021/12/16 04:57:37;;;;;;;17.77;12.60;;;7.80;99.90;;;;;;5046749;28;20423;-70
2021/12/16 05:00:07;;;;;;;21.90;13.27;;;7.80;99.90;;;;;;5046206;28;20778;-70
2021/12/16 05:02:33;;;;;;;20.70;12.40;;;7.80;99.90;;;;;;5048013;28;20181;-70
2021/12/16 05:04:58;;;;;;;21.20;13.03;;;7.80;99.90;;;;;;5049315;28;20534;-72
2021/12/16 05:07:24;;;;;;;21.10;13.50;;;7.80;99.90;;;;;;5050659;28;20177;-71
2021/12/16 05:12:30;;;;;;;20.70;13.80;;;7.70;99.90;;;;;;5049853;28;20219;-70
2021/12/16 05:14:56;;;;;;;21.67;13.20;;;7.80;99.90;;;;;;5048459;28;20463;-71
2021/12/16 05:17:32;;;;;;;19.57;12.63;;;7.90;99.90;;;;;;5048962;28;20490;-71
2021/12/16 05:20:03;;;;;;;18.83;12.60;;;7.90;99.90;;;;;;5048690;28;20189;-70
2021/12/16 05:25:24;;;;;;;26.17;16.63;;;7.90;99.90;;;;;;5049865;28;20414;-71
2021/12/16 05:27:50;;;;;;;33.07;18.80;;;7.80;99.90;;;;;;5049996;28;20888;-71
2021/12/16 05:30:16;;;;;;;53.87;27.00;;;7.70;99.90;;;;;;5047819;28;20474;-71
2021/12/16 05:32:45;;;;;;;21.70;14.13;;;7.70;99.90;;;;;;5050094;28;20477;-71
2021/12/16 05:35:13;;;;;;;30.80;17.47;;;7.80;99.90;;;;;;5049043;28;20197;-71
2021/12/16 05:37:38;;;;;;;43.87;21.80;;;7.80;99.90;;;;;;5049469;28;20447;-72
2021/12/16 05:40:04;;;;;;;43.23;21.67;;;7.80;99.90;;;;;;5048139;28;20513;-71
2021/12/16 05:42:30;;;;;;;34.50;20.07;;;7.80;99.90;;;;;;5044884;28;20261;-71
2021/12/16 05:44:56;;;;;;;33.20;17.73;;;9.70;99.90;;;;;;5061286;28;20415;-71
2021/12/16 05:47:21;;;;;;;24.00;15.83;;;7.70;99.90;;;;;;5061403;28;20559;-71
2021/12/16 05:49:47;;;;;;;25.73;15.90;;;7.70;99.90;;;;;;5048007;28;20201;-72
2021/12/16 05:52:12;;;;;;;25.70;14.60;;;7.70;99.90;;;;;;5049178;28;20184;-71
2021/12/16 05:54:38;;;;;;;23.70;13.70;;;7.70;99.90;;;;;;5046882;28;20271;-71
2021/12/16 05:57:04;;;;;;;20.53;13.27;;;7.70;99.90;;;;;;5049369;28;20169;-71
2021/12/16 05:59:30;;;;;;;19.87;13.67;;;7.70;99.90;;;;;;5048374;28;20193;-71
2021/12/16 06:01:56;;;;;;;26.03;15.70;;;7.70;99.90;;;;;;5049602;28;20774;-72
2021/12/16 06:04:22;;;;;;;26.90;15.97;;;7.80;99.90;;;;;;5048317;28;20208;-69
2021/12/16 06:06:47;;;;;;;23.30;15.10;;;7.80;99.90;;;;;;5048753;28;20176;-71
2021/12/16 06:09:13;;;;;;;20.90;14.27;;;7.70;99.90;;;;;;5047106;28;20248;-70
2021/12/16 06:11:42;;;;;;;22.00;14.80;;;;;;;;;;5048127;28;20173;-71
2021/12/16 06:14:20;;;;;;;20.97;14.00;;;7.70;99.90;;;;;;5040263;28;20303;-71
2021/12/16 06:22:52;;;;;;;21.83;12.83;;;7.60;99.90;;;;;;5049870;28;20934;-72
2021/12/16 06:28:07;;;;;;;22.20;14.30;;;7.60;99.90;;;;;;5048700;28;20648;-71
2021/12/16 18:36:52;;;;;;;27.53;13.27;;;4.70;99.90;;;;;;5061147;28;20640;-71
2021/12/16 18:39:24;;;;;;;24.10;14.00;;;4.90;99.90;;;;;;5062729;28;20922;-75
2021/12/16 18:41:55;;;;;;;32.63;13.97;;;4.90;99.90;;;;;;5044263;28;20451;-70
2021/12/16 18:44:30;;;;;;;28.67;13.07;;;5.10;99.90;;;;;;5068969;28;20411;-72
2021/12/16 18:47:07;;;;;;;17.17;10.73;;;5.20;99.90;;;;;;5084014;28;20845;-70
2021/12/16 18:49:40;;;;;;;22.10;13.30;;;5.40;99.90;;;;;;5063731;28;20423;-70
2021/12/16 18:54:32;;;;;;;28.37;17.47;;;5.50;99.90;;;;;;5064545;28;20398;-71
2021/12/16 18:57:07;;;;;;;28.20;14.50;;;5.60;99.90;;;;;;5064084;28;20642;-71
2021/12/16 18:59:34;;;;;;;26.10;13.50;;;5.70;99.90;;;;;;5053487;28;20430;-71
2021/12/16 19:02:02;;;;;;;23.20;13.97;;;5.70;99.90;;;;;;5045470;28;20790;-71
2021/12/16 19:04:34;;;;;;;30.43;18.30;;;5.70;99.90;;;;;;5061072;28;20438;-71
2021/12/16 19:07:04;;;;;;;30.47;16.93;;;5.70;99.90;;;;;;5062534;28;20471;-71
2021/12/16 19:09:30;;;;;;;32.10;17.50;;;5.80;99.90;;;;;;5045718;28;20431;-71
2021/12/16 19:12:05;;;;;;;37.13;18.33;;;5.80;99.90;;;;;;5044617;28;21205;-72
2021/12/16 19:14:35;;;;;;;32.83;18.40;;;5.80;99.90;;;;;;5070940;28;20457;-71
2021/12/16 19:17:04;;;;;;;34.60;20.17;;;5.80;99.90;;;;;;5063780;28;20443;-71
2021/12/16 19:19:30;;;;;;;35.27;19.47;;;5.80;99.90;;;;;;5062466;28;20494;-70
2021/12/16 19:21:57;;;;;;;45.00;22.00;;;5.70;99.90;;;;;;5058771;28;21019;-71
2021/12/16 19:24:22;;;;;;;47.50;22.57;;;5.70;99.90;;;;;;5062087;28;20415;-72
2021/12/16 19:26:52;;;;;;;41.87;23.60;;;5.80;99.90;;;;;;5062360;28;20484;-70
2021/12/16 19:29:17;;;;;;;41.70;23.63;;;5.70;99.90;;;;;;5062101;28;20302;-71
2021/12/16 19:31:43;;;;;;;46.20;21.63;;;5.70;99.90;;;;;;5059006;28;20885;-73
2021/12/16 19:34:12;;;;;;;47.27;23.50;;;5.70;99.90;;;;;;5043824;28;20196;-72
2021/12/16 19:36:38;;;;;;;33.13;19.57;;;5.60;99.90;;;;;;5041503;28;20467;-70
2021/12/16 19:39:07;;;;;;;36.70;19.10;;;5.60;99.90;;;;;;5058018;28;20785;-70
2021/12/16 19:41:33;;;;;;;31.27;17.50;;;5.70;99.90;;;;;;5059191;28;20674;-70
2021/12/16 19:44:01;;;;;;;27.47;16.40;;;5.50;99.90;;;;;;5059021;28;20427;-71
2021/12/16 19:46:26;;;;;;;31.90;17.10;;;5.50;99.90;;;;;;5058641;28;20475;-70
2021/12/16 19:48:53;;;;;;;35.97;19.43;;;5.40;99.90;;;;;;5034449;28;20448;-72
2021/12/16 19:51:21;;;;;;;31.00;17.43;;;5.40;99.90;;;;;;5046167;28;20201;-71
2021/12/16 19:53:48;;;;;;;32.20;17.77;;;5.30;99.90;;;;;;5048575;28;20828;-71
2021/12/16 19:56:16;;;;;;;31.70;16.83;;;5.30;99.90;;;;;;5045819;28;20482;-71
2021/12/16 19:58:43;;;;;;;28.73;14.90;;;5.30;99.90;;;;;;5050007;28;20415;-70
2021/12/16 20:01:20;;;;;;;25.93;14.20;;;5.20;99.90;;;;;;5039431;28;21029;-71
2021/12/16 20:03:52;;;;;;;32.83;14.77;;;5.20;99.90;;;;;;5029960;28;20463;-71
2021/12/16 20:06:19;;;;;;;25.30;14.70;;;4.80;99.90;;;;;;5029217;28;20942;-71
2021/12/16 20:08:47;;;;;;;25.33;14.50;;;5.00;99.90;;;;;;5041927;28;20503;-70
2021/12/16 20:11:19;;;;;;;28.83;13.93;;;5.00;99.90;;;;;;5030077;28;20452;-71
2021/12/16 20:13:47;;;;;;;24.60;14.40;;;5.00;99.90;;;;;;5043558;28;20941;-70
2021/12/16 20:16:16;;;;;;;23.47;14.00;;;5.00;99.90;;;;;;5044936;28;20466;-71
2021/12/16 20:18:46;;;;;;;23.43;14.30;;;5.00;99.90;;;;;;5033356;28;20432;-73
2021/12/16 20:21:23;;;;;;;24.60;14.90;;;4.90;99.90;;;;;;5048394;28;20431;-71
2021/12/16 20:23:50;;;;;;;25.83;14.73;;;4.90;99.90;;;;;;5034115;28;20421;-70
2021/12/16 20:26:23;;;;;;;28.77;16.03;;;4.70;99.90;;;;;;5036054;28;20451;-71
2021/12/16 20:29:05;;;;;;;31.90;15.83;;;4.70;99.90;;;;;;5027947;28;20428;-71
2021/12/16 20:31:36;;;;;;;29.83;15.30;;;4.80;99.90;;;;;;5039138;28;20458;-70
2021/12/16 20:34:07;;;;;;;28.90;15.70;;;4.80;99.90;;;;;;5048435;28;20427;-70
2021/12/16 20:36:37;;;;;;;24.50;14.97;;;4.80;99.90;;;;;;5038708;28;20455;-70
2021/12/16 20:39:11;;;;;;;30.00;16.73;;;4.80;99.90;;;;;;5047308;28;20545;-72
2021/12/16 20:41:44;;;;;;;28.30;17.00;;;4.80;99.90;;;;;;5036628;28;20433;-71
2021/12/16 20:44:14;;;;;;;32.70;17.27;;;4.80;99.90;;;;;;5048407;28;20428;-71
2021/12/16 20:46:45;;;;;;;30.27;15.50;;;4.80;99.90;;;;;;5058196;28;20423;-70
2021/12/16 20:49:18;;;;;;;30.60;16.30;;;4.80;99.90;;;;;;5042955;28;20428;-70
2021/12/16 20:51:52;;;;;;;30.10;17.27;;;4.70;99.90;;;;;;5041528;28;20983;-70
2021/12/16 20:54:21;;;;;;;33.10;16.30;;;4.80;99.90;;;;;;5043622;28;20565;-71
2021/12/16 20:56:48;;;;;;;28.40;16.80;;;4.90;99.90;;;;;;5027785;28;20474;-71
2021/12/16 20:59:17;;;;;;;31.00;18.30;;;5.10;99.90;;;;;;5043636;28;20436;-70
2021/12/16 21:01:53;;;;;;;35.30;19.37;;;5.10;99.90;;;;;;5045752;28;20752;-71
2021/12/16 21:04:21;;;;;;;35.20;19.93;;;5.30;99.90;;;;;;5047692;28;20415;-69
2021/12/16 21:06:49;;;;;;;37.30;21.77;;;5.40;99.90;;;;;;5046263;28;20458;-70
2021/12/16 21:09:16;;;;;;;35.63;20.90;;;5.50;99.90;;;;;;5046735;28;20468;-71
2021/12/16 21:11:45;;;;;;;36.87;20.70;;;5.60;99.90;;;;;;5028916;28;20456;-70
2021/12/16 21:14:10;;;;;;;40.90;24.37;;;5.70;99.90;;;;;;5043070;28;21007;-70
2021/12/16 21:16:36;;;;;;;39.07;24.17;;;5.70;99.90;;;;;;5034634;28;20559;-70
2021/12/16 21:19:05;;;;;;;38.67;23.73;;;5.80;99.90;;;;;;5048346;28;20177;-70
2021/12/16 21:21:30;;;;;;;42.73;23.80;;;5.90;99.90;;;;;;5037681;28;20468;-71
2021/12/16 21:23:56;;;;;;;41.33;23.83;;;5.90;99.90;;;;;;5028585;28;20440;-70
2021/12/16 21:26:23;;;;;;;49.03;28.07;;;6.00;99.90;;;;;;5030019;28;20178;-69
2021/12/16 21:28:48;;;;;;;40.17;25.13;;;6.00;99.90;;;;;;5030909;28;21005;-71
2021/12/16 21:31:14;;;;;;;42.83;22.87;;;6.00;99.90;;;;;;5035897;28;20530;-70
2021/12/16 21:33:53;;;;;;;39.30;22.27;;;6.00;99.90;;;;;;5047204;28;20213;-71
2021/12/16 21:36:21;;;;;;;37.17;19.10;;;6.10;99.90;;;;;;5029475;28;20547;-71
2021/12/16 21:38:47;;;;;;;28.17;17.87;;;6.10;99.90;;;;;;5028022;28;20443;-70
2021/12/16 21:41:15;;;;;;;29.97;19.10;;;6.10;99.90;;;;;;5035028;28;20428;-70
2021/12/16 21:43:41;;;;;;;32.27;18.00;;;6.10;99.90;;;;;;5040203;28;20730;-71
2021/12/16 21:46:08;;;;;;;31.67;18.53;;;6.10;99.90;;;;;;5046468;28;20424;-71
2021/12/16 21:48:35;;;;;;;30.43;17.90;;;6.10;99.90;;;;;;5033264;28;20177;-71
2021/12/16 21:51:02;;;;;;;27.97;17.23;;;6.10;99.90;;;;;;5045340;28;20439;-71
2021/12/16 21:53:27;;;;;;;26.73;17.20;;;6.10;99.90;;;;;;5039920;28;20783;-72
2021/12/16 21:55:55;;;;;;;26.00;16.70;;;6.10;99.90;;;;;;5045975;28;20457;-70
2021/12/16 21:58:24;;;;;;;30.90;17.97;;;6.10;99.90;;;;;;5045413;28;20177;-71
2021/12/16 22:00:51;;;;;;;27.37;17.00;;;6.10;99.90;;;;;;5029563;28;21042;-70
2021/12/16 22:03:22;;;;;;;26.40;16.10;;;6.10;99.90;;;;;;5045665;28;20515;-71
2021/12/16 22:05:51;;;;;;;31.70;17.13;;;6.20;99.90;;;;;;5038397;28;20420;-70
2021/12/16 22:08:17;;;;;;;26.10;16.90;;;6.20;99.90;;;;;;5039880;28;20484;-71
2021/12/16 22:10:43;;;;;;;27.80;16.37;;;6.30;99.90;;;;;;5027434;28;20550;-72
2021/12/16 22:13:09;;;;;;;26.10;17.40;;;6.30;99.90;;;;;;5033178;28;20192;-72
2021/12/16 22:15:37;;;;;;;25.73;16.33;;;6.30;99.90;;;;;;5053166;28;21082;-70
2021/12/16 22:18:08;;;;;;;25.23;16.50;;;6.30;99.90;;;;;;5043884;28;20177;-70
2021/12/16 22:20:36;;;;;;;27.90;16.07;;;6.30;99.90;;;;;;5052471;28;20548;-72
2021/12/16 22:23:04;;;;;;;23.80;15.30;;;6.30;99.90;;;;;;5033799;28;20439;-72
2021/12/16 22:25:29;;;;;;;23.90;15.60;;;6.40;99.90;;;;;;5037651;28;20430;-72
2021/12/16 22:27:55;;;;;;;30.00;16.63;;;6.40;99.90;;;;;;5028110;28;20415;-71
2021/12/16 22:30:22;;;;;;;29.67;15.87;;;6.50;99.90;;;;;;5027600;28;20232;-71
2021/12/16 22:32:49;;;;;;;26.80;15.13;;;6.50;99.90;;;;;;5028062;28;20618;-71
2021/12/16 22:35:19;;;;;;;24.20;15.20;;;6.50;99.90;;;;;;5035308;28;20471;-72
2021/12/16 22:37:45;;;;;;;24.27;15.40;;;6.50;99.90;;;;;;5047205;28;20408;-71
2021/12/16 22:40:15;;;;;;;25.13;14.73;;;6.50;99.90;;;;;;5029812;28;21045;-71
2021/12/16 22:42:41;;;;;;;26.30;15.57;;;6.50;99.90;;;;;;5042590;28;20188;-70
2021/12/16 22:45:08;;;;;;;29.37;16.13;;;6.60;99.90;;;;;;5046052;28;20890;-71
2021/12/16 22:47:34;;;;;;;25.53;15.37;;;6.60;99.90;;;;;;5025731;28;20416;-71
2021/12/16 22:50:04;;;;;;;22.93;13.83;;;6.60;99.90;;;;;;5031873;28;20439;-71
2021/12/16 22:52:30;;;;;;;22.50;14.00;;;6.60;99.90;;;;;;5045094;28;20451;-71
2021/12/16 22:54:55;;;;;;;26.50;18.63;;;6.70;99.90;;;;;;5033745;28;20463;-70
2021/12/16 22:57:21;;;;;;;26.40;16.63;;;6.70;99.90;;;;;;5041129;28;20181;-70
2021/12/16 22:59:47;;;;;;;22.30;14.30;;;5.00;99.90;;;;;;5036154;28;20734;-71
2021/12/16 23:02:16;;;;;;;25.70;15.03;;;6.80;99.90;;;;;;5026205;28;20186;-71
2021/12/16 23:04:42;;;;;;;20.87;13.80;;;6.80;99.90;;;;;;5032025;28;20683;-70
2021/12/16 23:07:09;;;;;;;23.23;14.70;;;6.70;99.90;;;;;;5031162;28;20448;-71
2021/12/16 23:09:36;;;;;;;25.83;16.40;;;6.60;99.90;;;;;;5044787;28;20643;-72
2021/12/16 23:12:03;;;;;;;26.57;16.13;;;6.70;99.90;;;;;;5031850;28;20786;-71
2021/12/16 23:14:29;;;;;;;27.70;16.40;;;6.70;99.90;;;;;;5052463;28;20424;-71
2021/12/16 23:25:16;;;;;;;26.87;16.63;;;7.00;99.90;;;;;;5041627;28;20804;-69
2021/12/16 23:27:42;;;;;;;26.60;16.00;;;6.90;99.90;;;;;;5050110;28;20411;-71
2021/12/16 23:30:09;;;;;;;26.93;16.73;;;7.00;99.90;;;;;;5042572;28;20267;-71
2021/12/16 23:32:35;;;;;;;28.27;16.07;;;7.00;99.90;;;;;;5044120;28;20428;-70
2021/12/16 23:35:01;;;;;;;29.70;15.53;;;7.10;99.90;;;;;;5038489;28;20452;-70
2021/12/16 23:37:29;;;;;;;26.43;16.77;;;7.10;99.90;;;;;;5043146;28;20415;-71
2021/12/16 23:39:54;;;;;;;22.73;15.47;;;7.00;99.90;;;;;;5048197;28;20190;-70
2021/12/16 23:55:43;;;;;;;21.03;12.97;;;6.90;99.90;;;;;;5031308;28;20571;-70
2021/12/16 23:58:09;;;;;;;25.03;13.63;;;6.80;99.90;;;;;;5043751;28;20415;-71
